Weslaco, TX

3:39 AM CDT en Octubre 23, 2014 (GMT -0500)
Weslaco | Change Station
CLOSE
Current Station
Aeropuerto
Location: Weslaco,
Altura: 69 ft
Estaciones meteorológicas cercanas

Alt 69 ft 26.18 °N, 97.97 °W | Updated 24 minutes ago

Scattered Clouds
Nubes dispersas
68 ° F
Sensación térmica 68 ° F
N
4
Viento Variable Viento desde Norte

Hoy
Alta -- | Baja -- ° F
--% Posibilidad de precipitaciones
Ayer
Alta -- | Baja -- ° F
Precip. -- pul
7:35 AM 6:56 PM
Creciente menguante, 0% visible
Presión 30.01 pul
Visibilidad 7.0 Millas
Nubes Nubes dispersas 8000 ft
Punto de rocío 65 ° F
Humedad 89%
Precipitaciones 0.00 pul
Espesor de la nieve No disponible.
UV 0 de una escala de 12
Polen 3.80 de una escala de 12
Ozono Buena
PM2.5 Buena
Flu Activity Sporadic
METAR KT65 230815Z AUTO 35003KT 7SM SCT080 20/18 A3001 RMK AO2 T02000181

More Conditions Fewer Conditions

Presión 30.01 pul
Visibilidad 7.0 Millas
Nubes Nubes dispersas 8000 ft
Punto de rocío 65 ° F
Humedad 89%
Precipitaciones 0.00 pul
Espesor de la nieve No disponible.
UV 0 de una escala de 12
Polen 3.80 de una escala de 12
Ozono Buena
PM2.5 Buena
Flu Activity Sporadic
METAR KT65 230815Z AUTO 35003KT 7SM SCT080 20/18 A3001 RMK AO2 T02000181

More Conditions Fewer Conditions

10-Day Weather Forecast

Almanac

Astronomía

Oct. 23, 2014 Salida Puesta
Hora real 7:35 AM CDT 6:56 PM CDT
Crepúsculo civil 7:11 AM CDT 7:20 PM CDT
Crepúsculo náutico 6:44 AM CDT 7:47 PM CDT
Crepúsculo astronómico 6:17 AM CDT 8:14 PM CDT
Luna 7:18 AM CDT 6:59 PM CDT
Horas de luz 12h 08m
Horas de luz
11h 21m
Tomorrow will be 1m 25s shorter.
Creciente menguante, 0% of the Moon is Illuminated
Hoy
Creciente menguante
Oct 23
Nueva
Oct 30
Cuarto creciente
Nov 6
Luna llena
Nov 14
Cuarto menguante

Extremos de hoy

Máximos del estado Bajos del estado

Community

WunderPhotos

Upload Photos

1,764,197 ¡fotos cargadas!

Nearby

Calidad del aire

  Calidad del aire Índice AQ Contaminante
Ayer Buena
PM2.5
Ayer Buena
OZONE
Real Buena
PM2.5
Real Buena
OZONE
Jueves Buena
PM10
Jueves Buena
OZONE
Viernes Buena
PM10
Viernes Moderada
OZONE
Sábado Buena
PM10
Sábado Moderada
OZONE

Grosos de nieve

Estación Profundido Altura
No tenemos constancia de nieve nueva.

Actividad de terremotos

Ciudad Distance Mag. Tiempo y dato
No hay informes recientes de la actividad sísmica.
Magnitud mínima muestra es 2,5.

Temperaturas de aguas costeras

Lugar Temperatura
Sin partes meteorológicos de las estaciones

Estaciones meteorológicas cercanas